createdAt,value
2019-01-04T00:02:06.929Z,8.93
2019-01-04T00:04:36.861Z,8.17
2019-01-04T00:07:06.531Z,8.77
2019-01-04T00:09:36.213Z,11.73
2019-01-04T00:12:05.889Z,11.80
2019-01-04T00:14:35.877Z,11.10
2019-01-04T00:17:05.675Z,11.57
2019-01-04T00:19:35.394Z,10.50
2019-01-04T00:22:06.993Z,9.07
2019-01-04T00:24:36.681Z,9.40
2019-01-04T00:27:06.353Z,9.03
2019-01-04T00:29:36.118Z,9.57
2019-01-04T00:32:05.795Z,10.50
2019-01-04T00:34:35.539Z,9.53
2019-01-04T00:37:05.695Z,10.13
2019-01-04T00:39:35.442Z,10.80
2019-01-04T00:42:05.292Z,12.13
2019-01-04T00:44:34.977Z,11.28
2019-01-04T00:47:05.289Z,11.97
2019-01-04T00:49:35.717Z,11.87
2019-01-04T00:52:05.470Z,10.10
2019-01-04T00:54:35.146Z,12.43
2019-01-04T00:57:47.145Z,11.10
2019-01-04T01:00:49.869Z,9.77
2019-01-04T01:03:50.429Z,12.40
2019-01-04T01:06:47.145Z,10.82
2019-01-04T01:10:03.105Z,12.13
2019-01-04T01:13:08.295Z,10.87
2019-01-04T01:16:13.588Z,9.50
2019-01-04T01:19:30.638Z,10.47
2019-01-04T01:22:38.853Z,11.83
2019-01-04T01:25:52.998Z,12.87
2019-01-04T01:28:51.668Z,12.33
2019-01-04T01:31:57.348Z,11.30
2019-01-04T01:35:11.238Z,10.90
2019-01-04T01:38:23.684Z,11.77
2019-01-04T01:41:36.057Z,12.00
2019-01-04T01:44:42.553Z,13.40
2019-01-04T01:47:39.520Z,9.93
2019-01-04T01:50:55.431Z,10.00
2019-01-04T01:53:39.419Z,10.03
2019-01-04T01:56:09.105Z,10.13
2019-01-04T01:58:38.782Z,14.10
2019-01-04T02:01:08.456Z,9.87
2019-01-04T02:03:38.375Z,12.33
2019-01-04T02:06:08.054Z,10.07
2019-01-04T02:08:38.776Z,14.10
2019-01-04T02:11:08.470Z,13.23
2019-01-04T02:13:38.143Z,11.03
2019-01-04T02:16:07.908Z,10.03
2019-01-04T02:18:37.586Z,12.57
2019-01-04T02:21:07.265Z,9.43
2019-01-04T02:23:36.950Z,12.07
2019-01-04T02:26:06.621Z,10.80
2019-01-04T02:28:36.288Z,12.63
2019-01-04T02:31:05.969Z,10.40
2019-01-04T02:33:35.893Z,12.43
2019-01-04T02:36:05.647Z,12.67
2019-01-04T02:38:35.321Z,12.73
2019-01-04T02:41:05.032Z,13.50
2019-01-04T02:43:34.976Z,11.80
2019-01-04T02:46:05.521Z,11.78
2019-01-04T02:48:35.428Z,10.87
2019-01-04T02:51:05.636Z,11.37
2019-01-04T02:53:35.289Z,12.63
2019-01-04T02:56:05.365Z,12.23
2019-01-04T02:58:35.314Z,12.93
2019-01-04T03:01:05.674Z,10.82
2019-01-04T03:03:35.361Z,13.98
2019-01-04T03:06:05.242Z,12.37
2019-01-04T03:08:34.929Z,11.77
2019-01-04T03:11:04.602Z,10.40
2019-01-04T03:13:34.300Z,13.13
2019-01-04T03:16:04.062Z,12.43
2019-01-04T03:18:33.736Z,9.90
2019-01-04T03:21:03.645Z,10.13
2019-01-04T03:23:33.333Z,11.60
2019-01-04T03:26:03.009Z,11.90
2019-01-04T03:28:32.697Z,10.73
2019-01-04T03:31:02.440Z,12.43
2019-01-04T03:33:32.124Z,11.00
2019-01-04T03:36:01.803Z,8.73
2019-01-04T03:38:31.473Z,10.27
2019-01-04T03:41:01.148Z,9.63
2019-01-04T03:43:30.820Z,11.60
2019-01-04T03:46:00.503Z,11.63
2019-01-04T03:48:30.173Z,11.27
2019-01-04T03:51:00.796Z,10.53
2019-01-04T03:53:30.473Z,10.00
2019-01-04T03:56:00.137Z,8.97
2019-01-04T03:58:29.810Z,10.33
2019-01-04T04:00:59.460Z,8.43
2019-01-04T04:03:29.143Z,10.33
2019-01-04T04:05:58.814Z,9.77
2019-01-04T04:08:28.494Z,10.67
2019-01-04T04:10:58.183Z,10.03
2019-01-04T04:13:27.854Z,9.80
2019-01-04T04:15:57.602Z,8.60
2019-01-04T04:18:27.275Z,8.07
2019-01-04T04:20:56.939Z,8.07
2019-01-04T04:23:26.599Z,9.50
2019-01-04T04:25:57.230Z,9.23
2019-01-04T04:28:27.020Z,9.87
2019-01-04T04:30:56.688Z,5.83
2019-01-04T04:33:26.361Z,10.07
2019-01-04T04:35:56.038Z,7.37
2019-01-04T04:38:25.693Z,7.17
2019-01-04T04:40:55.369Z,7.43
2019-01-04T04:43:25.042Z,7.43
2019-01-04T04:45:54.705Z,7.50
2019-01-04T04:48:24.378Z,7.27
2019-01-04T04:50:54.053Z,8.77
2019-01-04T04:53:23.721Z,10.33
2019-01-04T04:55:53.404Z,8.30
2019-01-04T04:58:23.099Z,9.00
2019-01-04T05:00:52.767Z,8.93
2019-01-04T05:03:22.442Z,9.57
2019-01-04T05:05:52.114Z,7.93
2019-01-04T05:08:21.857Z,10.48
2019-01-04T05:10:51.540Z,9.87
2019-01-04T05:13:21.204Z,8.80
2019-01-04T05:15:50.872Z,7.60
2019-01-04T05:18:20.558Z,11.80
2019-01-04T05:20:50.229Z,12.10
2019-01-04T05:23:19.890Z,8.83
2019-01-04T05:25:49.571Z,9.80
2019-01-04T05:28:19.254Z,11.40
2019-01-04T05:30:48.929Z,10.17
2019-01-04T05:33:18.605Z,11.57
2019-01-04T05:35:48.289Z,10.23
2019-01-04T05:38:17.970Z,12.63
2019-01-04T05:40:47.652Z,11.27
2019-01-04T05:43:17.341Z,11.93
2019-01-04T05:45:47.012Z,13.07
2019-01-04T05:48:16.693Z,10.70
2019-01-04T05:50:46.368Z,10.27
2019-01-04T05:53:16.290Z,11.07
2019-01-04T05:55:45.967Z,14.83
2019-01-04T05:58:15.892Z,11.13
2019-01-04T06:00:45.566Z,7.47
2019-01-04T06:03:15.245Z,7.70
2019-01-04T06:05:45.178Z,8.03
2019-01-04T06:08:14.849Z,8.90
2019-01-04T06:10:44.529Z,8.53
2019-01-04T06:13:14.259Z,8.27
2019-01-04T06:15:43.957Z,8.03
2019-01-04T06:18:13.620Z,8.00
2019-01-04T06:20:43.543Z,7.63
2019-01-04T06:23:13.224Z,7.50
2019-01-04T06:25:42.895Z,6.77
2019-01-04T06:28:12.559Z,6.37
2019-01-04T06:30:42.219Z,6.33
2019-01-04T06:33:11.888Z,5.33
2019-01-04T06:35:41.788Z,5.57
2019-01-04T06:38:11.471Z,5.50
2019-01-04T06:40:41.143Z,6.47
2019-01-04T06:43:10.796Z,5.62
2019-01-04T06:45:40.548Z,5.77
2019-01-04T06:48:10.208Z,7.23
2019-01-04T06:50:39.872Z,8.13
2019-01-04T06:53:09.532Z,6.33
2019-01-04T06:56:00.259Z,6.63
2019-01-04T06:58:29.934Z,6.40
2019-01-04T07:00:59.615Z,6.57
2019-01-04T07:03:29.291Z,6.30
2019-01-04T07:05:58.969Z,6.30
2019-01-04T07:08:28.734Z,5.70
2019-01-04T07:10:58.419Z,6.30
2019-01-04T07:13:28.329Z,6.50
2019-01-04T07:15:58.000Z,6.60
2019-01-04T07:18:27.679Z,6.50
2019-01-04T07:20:57.591Z,7.00
2019-01-04T07:23:27.963Z,6.70
2019-01-04T07:25:57.652Z,6.90
2019-01-04T07:28:27.328Z,6.77
2019-01-04T07:30:57.001Z,7.03
2019-01-04T07:33:26.666Z,7.13
2019-01-04T07:35:56.407Z,6.75
2019-01-04T07:38:26.091Z,7.07
2019-01-04T07:40:55.765Z,7.03
2019-01-04T07:43:26.407Z,6.37
2019-01-04T07:45:56.079Z,6.57
2019-01-04T07:48:25.746Z,7.60
2019-01-04T07:50:55.437Z,7.40
2019-01-04T07:53:25.105Z,6.27
2019-01-04T07:55:54.783Z,6.80
2019-01-04T07:58:24.700Z,6.37
2019-01-04T08:00:54.376Z,6.13
2019-01-04T08:03:25.800Z,6.00
2019-01-04T08:05:58.180Z,5.40
2019-01-04T08:08:27.839Z,5.60
2019-01-04T08:10:57.532Z,5.63
2019-01-04T08:13:27.267Z,5.10
2019-01-04T08:15:56.932Z,5.43
2019-01-04T08:18:26.595Z,5.50
2019-01-04T08:20:56.512Z,5.70
2019-01-04T08:23:26.439Z,6.80
2019-01-04T08:25:56.109Z,5.50
2019-01-04T08:28:30.978Z,5.00
2019-01-04T08:31:01.377Z,4.80
2019-01-04T08:33:31.048Z,4.43
2019-01-04T08:36:00.712Z,4.30
2019-01-04T08:38:30.392Z,4.37
2019-01-04T08:41:00.056Z,5.07
2019-01-04T08:43:29.738Z,5.00
2019-01-04T08:45:59.473Z,4.80
2019-01-04T08:48:29.232Z,4.40
2019-01-04T08:50:58.911Z,5.03
2019-01-04T08:53:54.780Z,5.00
2019-01-04T08:56:25.108Z,4.63
2019-01-04T08:58:54.785Z,5.03
2019-01-04T09:01:24.451Z,4.93
2019-01-04T09:03:54.119Z,5.10
2019-01-04T09:06:23.843Z,5.17
2019-01-04T09:08:53.509Z,5.10
2019-01-04T09:11:23.247Z,5.13
2019-01-04T09:13:54.112Z,4.95
2019-01-04T09:16:23.772Z,6.13
2019-01-04T09:18:53.523Z,6.23
2019-01-04T09:21:23.198Z,5.60
2019-01-04T09:23:53.115Z,5.57
2019-01-04T09:26:22.787Z,5.85
2019-01-04T09:28:52.528Z,6.00
2019-01-04T09:31:22.198Z,5.87
2019-01-04T09:33:51.874Z,6.73
2019-01-04T09:36:21.540Z,5.62
2019-01-04T09:38:52.651Z,7.03
2019-01-04T09:41:30.805Z,7.27
2019-01-04T09:44:00.570Z,6.73
2019-01-04T09:46:31.173Z,8.03
2019-01-04T09:49:00.913Z,9.13
2019-01-04T09:51:30.671Z,7.50
2019-01-04T09:54:00.338Z,8.53
2019-01-04T09:56:30.021Z,8.47
2019-01-04T09:58:59.948Z,7.30
2019-01-04T10:01:29.630Z,8.10
2019-01-04T10:03:59.319Z,8.47
2019-01-04T10:06:28.990Z,8.47
2019-01-04T10:08:58.659Z,7.93
2019-01-04T10:11:28.341Z,7.63
2019-01-04T10:13:58.009Z,8.13
2019-01-04T10:16:27.680Z,8.40
2019-01-04T10:18:57.347Z,9.20
2019-01-04T10:21:27.104Z,8.43
2019-01-04T10:23:56.768Z,8.20
2019-01-04T10:26:26.438Z,7.97
2019-01-04T10:28:56.118Z,7.67
2019-01-04T10:31:25.786Z,8.47
2019-01-04T10:33:55.465Z,8.50
2019-01-04T10:36:25.129Z,7.97
2019-01-04T10:38:55.066Z,8.43
2019-01-04T10:41:24.736Z,8.60
2019-01-04T10:43:54.683Z,8.77
2019-01-04T10:46:24.347Z,8.17
2019-01-04T10:48:54.216Z,6.83
2019-01-04T10:51:23.897Z,7.67
2019-01-04T10:53:53.576Z,9.77
2019-01-04T10:56:23.277Z,8.97
2019-01-04T10:58:52.941Z,7.83
2019-01-04T11:01:22.616Z,7.97
2019-01-04T11:03:52.290Z,7.70
2019-01-04T11:06:22.031Z,9.70
2019-01-04T11:08:51.707Z,7.70
2019-01-04T11:11:21.404Z,9.27
2019-01-04T11:13:51.110Z,9.50
2019-01-04T11:16:20.758Z,9.27
2019-01-04T11:18:50.430Z,9.03
2019-01-04T11:21:20.346Z,8.43
2019-01-04T11:24:35.043Z,8.55
2019-01-04T11:27:23.555Z,8.80
2019-01-04T11:30:27.497Z,8.70
2019-01-04T11:33:43.095Z,8.68
2019-01-04T11:36:40.995Z,8.43
2019-01-04T11:39:23.768Z,9.03
2019-01-04T11:42:05.824Z,8.57
2019-01-04T11:45:11.675Z,8.53
2019-01-04T11:48:12.422Z,8.40
2019-01-04T11:51:12.273Z,9.07
2019-01-04T11:53:42.481Z,8.23
2019-01-04T11:56:12.205Z,8.77
2019-01-04T11:58:42.280Z,8.30
2019-01-04T12:01:12.099Z,9.23
2019-01-04T12:03:43.513Z,8.83
2019-01-04T12:06:13.250Z,7.85
2019-01-04T12:08:42.924Z,8.05
2019-01-04T12:11:12.597Z,9.17
2019-01-04T12:13:42.325Z,8.27
2019-01-04T12:16:12.088Z,8.00
2019-01-04T12:18:41.820Z,8.37
2019-01-04T12:21:11.538Z,8.70
2019-01-04T12:23:41.236Z,9.60
2019-01-04T12:26:10.928Z,8.10
2019-01-04T12:28:40.818Z,10.13
2019-01-04T12:31:10.598Z,8.93
2019-01-04T12:33:40.294Z,10.53
2019-01-04T12:36:10.127Z,9.43
2019-01-04T12:38:39.825Z,9.33
2019-01-04T12:41:09.641Z,8.53
2019-01-04T12:43:39.455Z,8.97
2019-01-04T12:46:09.204Z,8.60
2019-01-04T12:48:39.002Z,9.17
2019-01-04T12:51:08.766Z,8.47
2019-01-04T12:53:38.436Z,9.03
2019-01-04T12:56:09.097Z,8.93
2019-01-04T12:58:39.025Z,10.00
2019-01-04T13:01:08.793Z,8.97
2019-01-04T13:03:38.491Z,9.20
2019-01-04T13:06:08.176Z,8.37
2019-01-04T13:08:38.099Z,9.23
2019-01-04T13:11:08.089Z,8.97
2019-01-04T13:13:38.006Z,9.37
2019-01-04T13:16:07.679Z,9.17
2019-01-04T13:18:37.332Z,9.07
2019-01-04T13:21:07.006Z,8.73
2019-01-04T13:23:36.673Z,9.87
2019-01-04T13:26:06.348Z,10.00
2019-01-04T13:28:36.029Z,10.90
2019-01-04T13:31:05.722Z,10.23
2019-01-04T13:33:35.389Z,8.63
2019-01-04T13:36:06.034Z,10.27
2019-01-04T13:38:35.714Z,9.80
2019-01-04T13:41:05.832Z,9.40
2019-01-04T13:43:35.513Z,10.63
2019-01-04T13:46:05.313Z,10.50
2019-01-04T13:48:34.992Z,10.40
2019-01-04T13:51:05.508Z,10.53
2019-01-04T13:53:35.193Z,10.53
2019-01-04T13:56:05.670Z,11.38
2019-01-04T13:58:35.435Z,11.23
2019-01-04T14:01:05.676Z,10.73
2019-01-04T14:03:35.367Z,11.77
2019-01-04T14:06:05.127Z,9.83
2019-01-04T14:08:34.810Z,11.23
2019-01-04T14:11:04.601Z,11.40
2019-01-04T14:13:34.290Z,10.93
2019-01-04T14:18:57.702Z,11.03
2019-01-04T14:21:27.382Z,9.93
2019-01-04T14:23:57.323Z,10.87
2019-01-04T14:26:27.244Z,10.03
2019-01-04T14:28:56.945Z,9.23
2019-01-04T14:31:26.625Z,9.93
2019-01-04T14:33:56.315Z,9.97
2019-01-04T14:36:25.985Z,10.73
2019-01-04T14:38:55.668Z,10.70
2019-01-04T14:41:25.353Z,11.87
2019-01-04T14:43:55.127Z,10.93
2019-01-04T14:46:25.086Z,10.83
2019-01-04T14:48:54.771Z,11.00
2019-01-04T14:51:24.525Z,11.03
2019-01-04T14:53:54.193Z,11.43
2019-01-04T14:56:23.900Z,11.30
2019-01-04T14:58:53.637Z,11.43
2019-01-04T15:01:23.330Z,11.07
2019-01-04T15:03:54.183Z,11.83
2019-01-04T15:06:24.183Z,10.97
2019-01-04T15:08:53.887Z,10.70
2019-01-04T15:11:23.562Z,10.83
2019-01-04T15:13:53.233Z,13.47
2019-01-04T15:16:22.994Z,12.47
2019-01-04T15:18:53.225Z,11.97
2019-01-04T15:21:23.159Z,13.33
2019-01-04T15:23:52.830Z,12.87
2019-01-04T15:26:22.500Z,12.65
2019-01-04T15:28:52.185Z,11.40
2019-01-04T15:31:22.104Z,12.07
2019-01-04T15:33:51.776Z,6.50
2019-01-04T15:36:21.458Z,13.30
2019-01-04T15:38:51.384Z,13.57
2019-01-04T15:41:21.074Z,9.80
2019-01-04T15:43:50.764Z,15.77
2019-01-04T15:46:20.455Z,13.30
2019-01-04T15:48:50.133Z,14.83
2019-01-04T15:51:19.875Z,12.93
2019-01-04T15:53:49.560Z,13.17
2019-01-04T15:56:19.248Z,14.77
2019-01-04T15:58:48.937Z,14.70
2019-01-04T16:01:18.608Z,13.73
2019-01-04T16:03:48.320Z,14.53
2019-01-04T16:06:18.005Z,15.15
2019-01-04T16:08:47.950Z,13.57
2019-01-04T16:11:17.629Z,12.77
2019-01-04T16:13:47.306Z,14.10
2019-01-04T16:16:16.975Z,14.87
2019-01-04T16:18:46.653Z,14.73
2019-01-04T16:21:16.341Z,15.28
2019-01-04T16:23:46.035Z,15.87
2019-01-04T16:26:15.708Z,15.83
2019-01-04T16:28:45.411Z,14.13
2019-01-04T16:31:15.106Z,15.98
2019-01-04T16:33:44.772Z,14.30
2019-01-04T16:36:14.892Z,16.03
2019-01-04T16:38:45.533Z,15.30
2019-01-04T16:41:15.226Z,14.63
2019-01-04T16:43:44.892Z,14.93
2019-01-04T16:46:14.566Z,14.17
2019-01-04T16:48:44.269Z,14.33
2019-01-04T16:51:13.941Z,12.63
2019-01-04T16:53:43.871Z,13.32
2019-01-04T16:56:13.541Z,13.90
2019-01-04T16:58:43.224Z,13.90
2019-01-04T17:01:13.191Z,13.33
2019-01-04T17:03:42.942Z,13.70
2019-01-04T17:06:12.881Z,13.93
2019-01-04T17:08:42.841Z,16.00
2019-01-04T17:11:12.534Z,13.53
2019-01-04T17:13:42.218Z,14.03
2019-01-04T17:16:11.895Z,14.93
2019-01-04T17:18:41.589Z,14.33
2019-01-04T17:21:11.241Z,14.78
2019-01-04T17:23:41.261Z,15.50
2019-01-04T17:26:11.006Z,15.18
2019-01-04T17:28:40.766Z,14.33
2019-01-04T17:31:10.440Z,14.67
2019-01-04T17:33:40.118Z,15.03
2019-01-04T17:36:09.791Z,15.60
2019-01-04T17:38:39.467Z,15.13
2019-01-04T17:41:09.222Z,15.10
2019-01-04T17:43:39.154Z,15.03
2019-01-04T17:46:08.843Z,14.67
2019-01-04T17:48:38.539Z,15.43
2019-01-04T17:51:08.230Z,14.07
2019-01-04T17:53:37.913Z,13.93
2019-01-04T17:56:07.594Z,14.77
2019-01-04T17:58:37.258Z,14.47
2019-01-04T18:01:07.015Z,13.17
2019-01-04T18:03:36.705Z,13.80
2019-01-04T18:06:06.538Z,13.70
2019-01-04T18:08:36.214Z,14.17
2019-01-04T18:11:05.913Z,13.83
2019-01-04T18:13:35.667Z,13.10
2019-01-04T18:16:05.864Z,12.98
2019-01-04T18:18:35.702Z,15.88
2019-01-04T18:21:05.449Z,13.73
2019-01-04T18:23:35.209Z,13.70
2019-01-04T18:26:05.989Z,14.00
2019-01-04T18:28:35.689Z,14.47
2019-01-04T18:31:06.735Z,15.20
2019-01-04T18:33:36.752Z,13.73
2019-01-04T18:36:06.435Z,13.40
2019-01-04T18:38:36.122Z,14.83
2019-01-04T18:41:05.885Z,14.73
2019-01-04T18:43:35.585Z,14.17
2019-01-04T18:46:05.501Z,14.97
2019-01-04T18:48:35.186Z,14.63
2019-01-04T18:51:05.382Z,13.43
2019-01-04T18:53:35.061Z,13.73
2019-01-04T18:56:05.296Z,15.10
2019-01-04T18:58:34.983Z,13.00
2019-01-04T19:01:05.613Z,12.20
2019-01-04T19:03:35.284Z,12.97
2019-01-04T19:06:05.146Z,12.70
2019-01-04T19:08:34.821Z,14.37
2019-01-04T19:11:05.418Z,14.85
2019-01-04T19:13:36.160Z,14.97
2019-01-04T19:16:05.842Z,14.83
2019-01-04T19:18:35.511Z,13.93
2019-01-04T19:21:06.156Z,13.60
2019-01-04T19:23:39.557Z,14.10
2019-01-04T19:26:07.224Z,13.27
2019-01-04T19:28:36.922Z,12.03
2019-01-04T19:31:24.374Z,14.83
2019-01-04T19:33:54.053Z,14.53
2019-01-04T19:36:24.400Z,13.87
2019-01-04T19:38:54.099Z,13.53
2019-01-04T19:41:23.881Z,14.40
2019-01-04T19:43:53.588Z,13.53
2019-01-04T19:46:23.260Z,12.80
2019-01-04T19:48:53.399Z,13.67
2019-01-04T19:51:23.161Z,14.93
2019-01-04T19:53:52.841Z,15.47
2019-01-04T19:56:22.765Z,13.57
2019-01-04T19:58:52.450Z,13.77
2019-01-04T20:01:22.389Z,13.43
2019-01-04T20:03:52.057Z,15.70
2019-01-04T20:07:25.855Z,15.70
2019-01-04T20:10:49.215Z,13.33
2019-01-04T20:14:21.164Z,12.30
2019-01-04T20:17:15.204Z,13.67
2019-01-04T20:20:06.673Z,13.77
2019-01-04T20:22:55.829Z,14.58
2019-01-04T20:25:59.097Z,12.37
2019-01-04T20:28:46.265Z,11.37
2019-01-04T20:31:40.641Z,12.80
2019-01-04T20:34:29.343Z,12.03
2019-01-04T20:37:21.203Z,11.73
2019-01-04T20:40:12.806Z,10.70
2019-01-04T20:42:59.354Z,10.67
2019-01-04T20:45:49.242Z,10.87
2019-01-04T20:48:40.717Z,11.63
2019-01-04T20:51:38.192Z,11.63
2019-01-04T20:54:25.545Z,10.33
2019-01-04T20:57:14.714Z,11.03
2019-01-04T21:00:02.121Z,9.87
2019-01-04T21:02:50.982Z,11.07
2019-01-04T21:05:38.368Z,9.40
2019-01-04T21:08:27.079Z,10.50
2019-01-04T21:11:21.605Z,10.40
2019-01-04T21:14:11.237Z,10.10
2019-01-04T21:17:14.732Z,9.50
2019-01-04T21:19:59.383Z,9.47
2019-01-04T21:22:46.840Z,9.10
2019-01-04T21:25:29.711Z,8.10
2019-01-04T21:28:13.897Z,8.90
2019-01-04T21:31:01.341Z,9.00
2019-01-04T21:33:55.920Z,8.07
2019-01-04T21:36:53.525Z,8.83
2019-01-04T21:39:36.638Z,8.30
2019-01-04T21:42:37.526Z,7.93
2019-01-04T21:45:22.329Z,7.97
2019-01-04T21:48:11.747Z,7.70
2019-01-04T21:50:59.999Z,6.47
2019-01-04T21:53:47.097Z,7.57
2019-01-04T21:56:35.817Z,7.33
2019-01-04T21:59:30.332Z,7.20
2019-01-04T22:02:32.606Z,7.47
2019-01-04T22:05:31.719Z,6.90
2019-01-04T22:08:19.049Z,7.83
2019-01-04T22:11:06.796Z,6.27
2019-01-04T22:14:08.216Z,7.03
2019-01-04T22:17:11.851Z,7.30
2019-01-04T22:20:09.937Z,7.03
2019-01-04T22:23:00.410Z,7.07
2019-01-04T22:26:05.078Z,6.73
2019-01-04T22:28:52.240Z,6.83
2019-01-04T22:31:39.678Z,6.83
2019-01-04T22:34:37.658Z,7.23
2019-01-04T22:37:30.656Z,7.07
2019-01-04T22:40:22.364Z,7.10
2019-01-04T22:43:09.761Z,6.57
2019-01-04T22:46:06.938Z,6.93
2019-01-04T22:48:54.126Z,7.43
2019-01-04T22:51:42.816Z,6.47
2019-01-04T22:54:31.521Z,6.30
2019-01-04T22:57:35.119Z,7.37
2019-01-04T23:00:32.505Z,7.10
2019-01-04T23:03:19.981Z,7.00
2019-01-04T23:06:07.372Z,7.00
2019-01-04T23:08:59.321Z,7.10
2019-01-04T23:11:42.064Z,7.97
2019-01-04T23:14:29.221Z,6.95
2019-01-04T23:17:27.893Z,7.00
2019-01-04T23:20:24.688Z,7.00
2019-01-04T23:23:18.462Z,7.30
2019-01-04T23:26:05.885Z,7.27
2019-01-04T23:28:53.368Z,8.50
2019-01-04T23:31:40.479Z,7.27
2019-01-04T23:34:32.200Z,8.33
2019-01-04T23:37:19.630Z,7.80
2019-01-04T23:40:15.264Z,7.43
2019-01-04T23:43:03.232Z,7.50
2019-01-04T23:45:54.517Z,7.63
2019-01-04T23:48:37.407Z,8.63
2019-01-04T23:51:24.315Z,8.03
2019-01-04T23:54:02.608Z,7.97
2019-01-04T23:56:54.328Z,7.73
2019-01-04T23:59:38.391Z,7.15
